Time;durP1;ratioP1;P1;durP2;ratioP2;P2;SDS_P1;SDS_P2;PMS_P1;PMS_P2;Temp;Humidity;BMP_temperature;BMP_pressure;BME280_temperature;BME280_humidity;BME280_pressure;Samples;Min_cycle;Max_cycle;Signal;HPM_P1;HPM_P2
2023/04/18 00:01:03;;;;;;;16.97;12.90;;;;;;;;;;5025634;28;20182;-81
2023/04/18 00:03:28;;;;;;;13.73;11.87;;;;;;;;;;5027650;28;20194;-81
2023/04/18 00:05:54;;;;;;;15.33;12.20;;;;;;;;;;5031522;28;20178;-81
2023/04/18 00:08:19;;;;;;;16.03;13.00;;;;;;;;;;5027731;28;20193;-81
2023/04/18 00:10:45;;;;;;;16.23;12.23;;;;;;;;;;5030793;28;20224;-81
2023/04/18 00:13:10;;;;;;;15.87;12.27;;;;;;;;;;5014649;28;20290;-81
2023/04/18 00:15:36;;;;;;;16.40;12.53;;;;;;;;;;5033847;28;20273;-81
2023/04/18 00:18:04;;;;;;;16.90;12.50;;;;;;;;;;5027837;28;20306;-81
2023/04/18 00:20:30;;;;;;;17.47;12.40;;;;;;;;;;5028929;28;20178;-81
2023/04/18 00:22:55;;;;;;;15.90;11.63;;;;;;;;;;5026776;28;20213;-81
2023/04/18 00:25:21;;;;;;;17.17;13.60;;;;;;;;;;5031887;28;20230;-81
2023/04/18 00:27:46;;;;;;;18.17;13.07;;;;;;;;;;5023298;28;20190;-81
2023/04/18 00:30:11;;;;;;;18.17;13.60;;;;;;;;;;5035137;28;20186;-81
2023/04/18 00:32:36;;;;;;;17.47;13.13;;;;;;;;;;5036006;28;20204;-81
2023/04/18 00:35:02;;;;;;;16.63;12.87;;;;;;;;;;5021903;28;20210;-81
2023/04/18 00:37:28;;;;;;;18.33;13.93;;;;;;;;;;5027828;28;20260;-81
2023/04/18 00:39:53;;;;;;;16.97;13.80;;;;;;;;;;5029608;28;20185;-81
2023/04/18 00:42:24;;;;;;;19.93;14.40;;;;;;;;;;5028224;28;20181;-81
2023/04/18 00:44:49;;;;;;;17.77;12.80;;;;;;;;;;5030906;28;20219;-81
2023/04/18 00:47:16;;;;;;;19.63;14.20;;;;;;;;;;5030875;28;20217;-81
2023/04/18 00:49:41;;;;;;;22.80;14.67;;;;;;;;;;5026909;28;20193;-81
2023/04/18 00:52:07;;;;;;;17.10;12.90;;;;;;;;;;5022944;28;20187;-81
2023/04/18 00:54:32;;;;;;;19.30;13.93;;;;;;;;;;5020280;28;20186;-81
2023/04/18 00:56:57;;;;;;;20.10;13.63;;;;;;;;;;5027820;28;20204;-81
2023/04/18 00:59:22;;;;;;;19.80;14.33;;;;;;;;;;5028956;28;20186;-82
2023/04/18 01:01:48;;;;;;;16.93;13.10;;;;;;;;;;5021653;28;20179;-82
2023/04/18 01:04:13;;;;;;;17.80;13.10;;;;;;;;;;5018801;28;20183;-82
2023/04/18 01:06:38;;;;;;;21.07;13.60;;;;;;;;;;5049577;28;20197;-81
2023/04/18 01:09:04;;;;;;;15.63;11.20;;;;;;;;;;5022872;28;20211;-81
2023/04/18 01:11:30;;;;;;;17.27;13.83;;;;;;;;;;5027923;28;20185;-81
2023/04/18 01:14:02;;;;;;;15.93;12.30;;;;;;;;;;5031862;28;20178;-81
2023/04/18 01:16:27;;;;;;;21.83;14.10;;;;;;;;;;5020552;28;20238;-81
2023/04/18 01:18:53;;;;;;;16.97;13.30;;;;;;;;;;5027209;28;20182;-81
2023/04/18 01:21:19;;;;;;;17.40;13.57;;;;;;;;;;5024266;28;20259;-81
2023/04/18 01:23:45;;;;;;;19.40;12.53;;;;;;;;;;5030705;28;20177;-81
2023/04/18 01:26:10;;;;;;;20.83;14.30;;;;;;;;;;5027742;28;20205;-81
2023/04/18 01:28:35;;;;;;;20.27;13.77;;;;;;;;;;5018184;28;20185;-81
2023/04/18 01:31:01;;;;;;;18.03;13.60;;;;;;;;;;5027402;28;20179;-81
2023/04/18 01:33:26;;;;;;;19.20;14.13;;;;;;;;;;5032459;28;20256;-81
2023/04/18 01:35:51;;;;;;;20.93;14.23;;;;;;;;;;5028859;28;20205;-81
2023/04/18 01:38:16;;;;;;;16.73;11.90;;;;;;;;;;5027747;28;20202;-81
2023/04/18 01:40:42;;;;;;;21.33;14.60;;;;;;;;;;5028037;28;20171;-81
2023/04/18 01:43:07;;;;;;;18.13;12.80;;;;;;;;;;5025261;28;20179;-81
2023/04/18 01:45:32;;;;;;;16.07;11.93;;;;;;;;;;5022853;28;20188;-81
2023/04/18 01:47:57;;;;;;;18.10;13.60;;;;;;;;;;5024603;28;20190;-81
2023/04/18 01:50:23;;;;;;;18.83;10.67;;;;;;;;;;5032535;28;20183;-81
2023/04/18 01:52:48;;;;;;;19.00;13.57;;;;;;;;;;5024724;28;20296;-81
2023/04/18 01:55:16;;;;;;;18.47;12.93;;;;;;;;;;5025049;28;20181;-81
2023/04/18 01:57:42;;;;;;;21.30;15.47;;;;;;;;;;5023890;28;20205;-81
2023/04/18 02:00:07;;;;;;;19.90;14.57;;;;;;;;;;5031233;28;20190;-81
2023/04/18 02:02:33;;;;;;;17.53;13.50;;;;;;;;;;5026712;28;20226;-81
2023/04/18 02:04:58;;;;;;;19.30;13.00;;;;;;;;;;5023731;28;20214;-81
2023/04/18 02:07:23;;;;;;;17.80;13.83;;;;;;;;;;5034326;28;20191;-81
2023/04/18 02:09:48;;;;;;;18.93;13.23;;;;;;;;;;5033390;28;20216;-81
2023/04/18 02:12:14;;;;;;;18.70;13.50;;;;;;;;;;5024061;28;20193;-81
2023/04/18 02:14:39;;;;;;;18.10;14.47;;;;;;;;;;5024748;28;20185;-81
2023/04/18 02:17:04;;;;;;;20.47;15.07;;;;;;;;;;5021720;28;20323;-81
2023/04/18 02:19:29;;;;;;;17.10;12.63;;;;;;;;;;5016481;28;20272;-81
2023/04/18 02:21:55;;;;;;;16.50;11.10;;;;;;;;;;5016973;28;20190;-81
2023/04/18 02:24:20;;;;;;;18.73;13.20;;;;;;;;;;5028503;28;20269;-81
2023/04/18 02:26:45;;;;;;;20.10;12.10;;;;;;;;;;5029906;28;20289;-81
2023/04/18 02:29:10;;;;;;;18.90;13.53;;;;;;;;;;5024137;28;20273;-81
2023/04/18 02:31:38;;;;;;;18.43;13.77;;;;;;;;;;5022873;28;20255;-81
2023/04/18 02:34:03;;;;;;;18.57;12.87;;;;;;;;;;5031945;28;20178;-81
2023/04/18 02:36:29;;;;;;;16.13;11.03;;;;;;;;;;5037776;28;20254;-81
2023/04/18 02:38:55;;;;;;;19.73;12.33;;;;;;;;;;5026622;28;20266;-81
2023/04/18 02:41:20;;;;;;;17.97;12.97;;;;;;;;;;5032201;28;20293;-81
2023/04/18 02:43:45;;;;;;;14.40;9.43;;;;;;;;;;5028417;28;20190;-81
2023/04/18 02:46:10;;;;;;;17.43;11.57;;;;;;;;;;5027104;28;20174;-81
2023/04/18 02:48:36;;;;;;;18.00;12.80;;;;;;;;;;5021076;28;20216;-81
2023/04/18 02:51:02;;;;;;;19.57;14.07;;;;;;;;;;5021546;28;20269;-81
2023/04/18 02:53:27;;;;;;;16.83;12.27;;;;;;;;;;5031256;28;20229;-81
2023/04/18 02:55:52;;;;;;;16.27;11.63;;;;;;;;;;5029957;28;20196;-81
2023/04/18 02:58:18;;;;;;;17.70;12.27;;;;;;;;;;5031883;28;20211;-82
2023/04/18 03:00:43;;;;;;;20.57;14.93;;;;;;;;;;5026001;28;20182;-82
2023/04/18 03:03:09;;;;;;;18.90;13.90;;;;;;;;;;5034051;28;20216;-81
2023/04/18 03:05:34;;;;;;;20.20;13.37;;;;;;;;;;5031094;28;20188;-81
2023/04/18 03:07:59;;;;;;;15.60;12.07;;;;;;;;;;5029329;28;20282;-81
2023/04/18 03:10:24;;;;;;;18.90;13.40;;;;;;;;;;5030595;28;20190;-81
2023/04/18 03:12:50;;;;;;;19.47;14.13;;;;;;;;;;5031888;28;20177;-82
2023/04/18 03:15:15;;;;;;;17.93;11.57;;;;;;;;;;5026212;28;20181;-81
2023/04/18 03:17:40;;;;;;;19.83;14.43;;;;;;;;;;5035111;28;20233;-81
2023/04/18 03:20:06;;;;;;;17.87;12.37;;;;;;;;;;5024230;28;20211;-81
2023/04/18 03:22:32;;;;;;;17.87;13.13;;;;;;;;;;5031126;28;20193;-81
2023/04/18 03:24:58;;;;;;;18.03;12.50;;;;;;;;;;5045168;28;20180;-81
2023/04/18 03:27:24;;;;;;;18.10;12.80;;;;;;;;;;5020201;28;20190;-81
2023/04/18 03:29:49;;;;;;;18.77;13.37;;;;;;;;;;5019863;28;20202;-81
2023/04/18 03:32:16;;;;;;;19.53;13.97;;;;;;;;;;5031314;28;20270;-81
2023/04/18 03:34:41;;;;;;;17.97;12.20;;;;;;;;;;5028151;28;20189;-81
2023/04/18 03:37:06;;;;;;;19.67;14.20;;;;;;;;;;5031493;28;20279;-81
2023/04/18 03:39:31;;;;;;;17.27;11.97;;;;;;;;;;5028294;28;20265;-81
2023/04/18 03:41:56;;;;;;;19.87;13.43;;;;;;;;;;5022661;28;20192;-81
2023/04/18 03:44:22;;;;;;;17.20;12.77;;;;;;;;;;5020622;28;20276;-82
2023/04/18 03:46:47;;;;;;;17.93;12.83;;;;;;;;;;5023926;28;20193;-81
2023/04/18 03:49:12;;;;;;;17.77;13.43;;;;;;;;;;5029009;28;20195;-81
2023/04/18 03:51:42;;;;;;;18.87;12.67;;;;;;;;;;5025037;28;20194;-81
2023/04/18 03:54:07;;;;;;;15.50;12.17;;;;;;;;;;5024265;28;20183;-82
2023/04/18 03:56:32;;;;;;;17.90;14.30;;;;;;;;;;5039300;28;20197;-81
2023/04/18 03:58:57;;;;;;;17.50;13.67;;;;;;;;;;5030316;28;20206;-81
2023/04/18 04:01:23;;;;;;;18.10;12.70;;;;;;;;;;5022520;28;20173;-81
2023/04/18 04:03:48;;;;;;;20.50;14.20;;;;;;;;;;5028057;28;20219;-81
2023/04/18 04:06:13;;;;;;;19.43;14.10;;;;;;;;;;5023370;28;20189;-81
2023/04/18 04:08:39;;;;;;;18.00;13.83;;;;;;;;;;5020881;28;20257;-81
2023/04/18 04:11:04;;;;;;;18.23;12.80;;;;;;;;;;5020801;28;20242;-81
2023/04/18 04:13:29;;;;;;;17.00;13.37;;;;;;;;;;5023617;28;20228;-81
2023/04/18 04:15:55;;;;;;;19.67;11.47;;;;;;;;;;5024774;28;20182;-82
2023/04/18 04:18:24;;;;;;;21.50;13.07;;;;;;;;;;5022425;28;20226;-81
2023/04/18 04:20:49;;;;;;;19.83;13.37;;;;;;;;;;5023799;28;20185;-81
2023/04/18 04:23:14;;;;;;;19.13;13.83;;;;;;;;;;5019041;28;20223;-81
2023/04/18 04:25:39;;;;;;;19.00;12.73;;;;;;;;;;5038907;28;20265;-81
2023/04/18 04:28:05;;;;;;;25.50;12.77;;;;;;;;;;5022704;28;20332;-81
2023/04/18 04:30:32;;;;;;;8.70;6.73;;;;;;;;;;5027931;28;20182;-81
2023/04/18 04:32:58;;;;;;;16.33;10.80;;;;;;;;;;5024346;28;20206;-81
2023/04/18 04:35:23;;;;;;;17.47;13.23;;;;;;;;;;5026004;28;20322;-81
2023/04/18 04:37:50;;;;;;;19.53;13.83;;;;;;;;;;5024770;28;20301;-81
2023/04/18 04:40:16;;;;;;;20.30;14.67;;;;;;;;;;5027769;28;20171;-81
2023/04/18 04:42:41;;;;;;;18.53;12.63;;;;;;;;;;5029839;28;20177;-81
2023/04/18 04:45:08;;;;;;;15.63;11.80;;;;;;;;;;5026264;28;20186;-81
2023/04/18 04:47:33;;;;;;;14.07;9.23;;;;;;;;;;5019110;28;20192;-81
2023/04/18 04:49:58;;;;;;;21.40;14.77;;;;;;;;;;5024521;28;20194;-82
2023/04/18 04:52:24;;;;;;;18.17;12.47;;;;;;;;;;5028304;28;20174;-81
2023/04/18 04:54:49;;;;;;;20.37;13.53;;;;;;;;;;5024777;28;20184;-82
2023/04/18 04:57:15;;;;;;;16.47;12.60;;;;;;;;;;5017491;28;20244;-81
2023/04/18 04:59:40;;;;;;;17.40;13.40;;;;;;;;;;5023100;28;20172;-81
2023/04/18 05:02:05;;;;;;;18.00;12.50;;;;;;;;;;5023891;28;20293;-81
2023/04/18 05:04:30;;;;;;;18.70;13.50;;;;;;;;;;5023861;28;20189;-82
2023/04/18 05:06:56;;;;;;;19.27;12.97;;;;;;;;;;5022017;28;20216;-82
2023/04/18 05:09:21;;;;;;;19.93;13.50;;;;;;;;;;5023236;28;20264;-82
2023/04/18 05:11:48;;;;;;;22.87;13.90;;;;;;;;;;5030539;28;20182;-81
2023/04/18 05:14:13;;;;;;;19.60;14.50;;;;;;;;;;5028027;28;20186;-81
2023/04/18 05:16:38;;;;;;;20.37;13.50;;;;;;;;;;5023019;28;20228;-82
2023/04/18 05:19:04;;;;;;;19.83;14.00;;;;;;;;;;5018579;28;20197;-81
2023/04/18 05:21:30;;;;;;;20.83;15.03;;;;;;;;;;5021141;28;20190;-82
2023/04/18 05:23:55;;;;;;;20.27;15.47;;;;;;;;;;5027229;28;20184;-81
2023/04/18 05:26:20;;;;;;;21.50;14.50;;;;;;;;;;5022199;28;20226;-81
2023/04/18 05:28:46;;;;;;;21.70;14.13;;;;;;;;;;5027217;28;20186;-81
2023/04/18 05:31:11;;;;;;;22.87;14.57;;;;;;;;;;5019831;28;20385;-82
2023/04/18 05:33:36;;;;;;;21.50;15.13;;;;;;;;;;5025544;28;20175;-81
2023/04/18 05:36:02;;;;;;;19.37;14.73;;;;;;;;;;5025105;28;20265;-82
2023/04/18 05:38:27;;;;;;;21.03;17.27;;;;;;;;;;5027946;28;20288;-81
2023/04/18 05:40:54;;;;;;;12.17;9.00;;;;;;;;;;5021076;28;20194;-81
2023/04/18 05:43:19;;;;;;;15.73;11.27;;;;;;;;;;5023588;28;20172;-81
2023/04/18 05:45:45;;;;;;;22.47;13.73;;;;;;;;;;5022130;28;20177;-83
2023/04/18 05:48:10;;;;;;;20.10;13.00;;;;;;;;;;5025109;28;20232;-81
2023/04/18 05:50:35;;;;;;;16.60;13.10;;;;;;;;;;5027329;28;20174;-81
2023/04/18 05:53:00;;;;;;;23.40;13.43;;;;;;;;;;5023766;28;20178;-81
2023/04/18 05:55:26;;;;;;;20.73;13.63;;;;;;;;;;5024634;28;20184;-81
2023/04/18 05:57:51;;;;;;;21.90;14.23;;;;;;;;;;5024435;28;20273;-81
2023/04/18 06:00:16;;;;;;;14.90;12.10;;;;;;;;;;5029588;28;20182;-81
2023/04/18 06:02:42;;;;;;;18.77;13.33;;;;;;;;;;5025021;28;20200;-81
2023/04/18 06:05:07;;;;;;;16.30;11.10;;;;;;;;;;5025382;28;20187;-81
2023/04/18 06:07:33;;;;;;;21.00;13.93;;;;;;;;;;5027235;28;20191;-81
2023/04/18 06:09:58;;;;;;;20.70;13.97;;;;;;;;;;5025803;28;20196;-81
2023/04/18 06:12:23;;;;;;;22.20;13.77;;;;;;;;;;5026973;28;20180;-81
2023/04/18 06:14:49;;;;;;;17.63;11.73;;;;;;;;;;5029044;28;20183;-81
2023/04/18 06:17:14;;;;;;;19.57;15.77;;;;;;;;;;5026743;28;20231;-81
2023/04/18 06:19:40;;;;;;;19.63;14.90;;;;;;;;;;5032093;28;20197;-81
2023/04/18 06:22:05;;;;;;;21.10;14.27;;;;;;;;;;5029065;28;20179;-81
2023/04/18 06:24:30;;;;;;;21.77;14.53;;;;;;;;;;5029659;28;20181;-81
2023/04/18 06:26:56;;;;;;;19.03;14.53;;;;;;;;;;5034592;28;20187;-77
2023/04/18 06:29:22;;;;;;;19.13;13.53;;;;;;;;;;5032853;28;20320;-76
2023/04/18 06:31:47;;;;;;;19.63;15.00;;;;;;;;;;5032584;28;20519;-76
2023/04/18 06:34:12;;;;;;;22.50;15.13;;;;;;;;;;5032270;28;20187;-76
2023/04/18 06:36:37;;;;;;;20.80;14.30;;;;;;;;;;5036139;28;20183;-76
2023/04/18 06:39:03;;;;;;;19.67;13.30;;;;;;;;;;5032462;28;20187;-76
2023/04/18 06:41:28;;;;;;;19.33;13.80;;;;;;;;;;5048327;28;20190;-76
2023/04/18 06:43:53;;;;;;;18.37;14.40;;;;;;;;;;5031405;28;20180;-76
2023/04/18 06:46:18;;;;;;;19.70;13.53;;;;;;;;;;5029790;28;20180;-76
2023/04/18 06:48:44;;;;;;;20.13;14.93;;;;;;;;;;5028237;28;20183;-76
2023/04/18 06:51:09;;;;;;;20.07;14.10;;;;;;;;;;5032171;28;20215;-76
2023/04/18 06:53:34;;;;;;;20.63;14.47;;;;;;;;;;5030659;28;20183;-76
2023/04/18 06:55:59;;;;;;;20.10;14.80;;;;;;;;;;5030875;28;20189;-76
2023/04/18 06:58:25;;;;;;;19.70;13.57;;;;;;;;;;5027796;28;20224;-76
2023/04/18 07:00:50;;;;;;;29.03;16.20;;;;;;;;;;5031389;28;20185;-76
2023/04/18 07:03:16;;;;;;;20.47;15.43;;;;;;;;;;5023331;28;20197;-76
2023/04/18 07:05:41;;;;;;;17.50;13.93;;;;;;;;;;5026049;28;20266;-77
2023/04/18 07:08:06;;;;;;;23.40;15.57;;;;;;;;;;5027803;28;20181;-76
2023/04/18 07:10:31;;;;;;;24.67;17.03;;;;;;;;;;5031205;28;20189;-76
2023/04/18 07:12:57;;;;;;;20.17;14.30;;;;;;;;;;5023549;28;20181;-76
2023/04/18 07:15:22;;;;;;;20.63;14.63;;;;;;;;;;5042547;28;20258;-76
2023/04/18 07:17:47;;;;;;;18.50;13.73;;;;;;;;;;5044855;28;20313;-76
2023/04/18 07:20:12;;;;;;;20.30;15.33;;;;;;;;;;5029410;28;20186;-76
2023/04/18 07:22:38;;;;;;;21.00;14.97;;;;;;;;;;5026047;28;20191;-76
2023/04/18 07:25:03;;;;;;;22.27;16.60;;;;;;;;;;5028609;28;20193;-76
2023/04/18 07:27:28;;;;;;;18.70;14.53;;;;;;;;;;5027698;28;20273;-76
2023/04/18 07:29:53;;;;;;;18.40;14.40;;;;;;;;;;5034874;28;20188;-76
2023/04/18 07:32:19;;;;;;;22.77;16.53;;;;;;;;;;5030399;28;20229;-76
2023/04/18 07:34:44;;;;;;;18.77;14.63;;;;;;;;;;5030065;28;20188;-76
2023/04/18 07:37:10;;;;;;;20.47;14.83;;;;;;;;;;5030389;28;20262;-76
2023/04/18 07:39:35;;;;;;;21.77;15.70;;;;;;;;;;5034744;28;20185;-76
2023/04/18 07:42:02;;;;;;;22.30;16.00;;;;;;;;;;5030934;28;20220;-76
2023/04/18 07:44:27;;;;;;;19.33;15.03;;;;;;;;;;5029078;28;20185;-76
2023/04/18 07:46:52;;;;;;;18.97;13.87;;;;;;;;;;5029193;28;20190;-76
2023/04/18 07:49:17;;;;;;;20.97;15.60;;;;;;;;;;5039056;28;20255;-76
2023/04/18 07:51:43;;;;;;;25.30;16.13;;;;;;;;;;5028075;28;20178;-76
2023/04/18 07:54:09;;;;;;;20.23;14.53;;;;;;;;;;5035177;28;20181;-76
2023/04/18 07:56:35;;;;;;;22.97;15.67;;;;;;;;;;5025296;28;20187;-76
2023/04/18 07:59:00;;;;;;;21.00;13.27;;;;;;;;;;5028783;28;20184;-76
2023/04/18 08:01:26;;;;;;;19.97;14.40;;;;;;;;;;5030290;28;20188;-76
2023/04/18 08:03:53;;;;;;;19.40;13.57;;;;;;;;;;5027683;28;20193;-76
2023/04/18 08:06:19;;;;;;;21.40;15.17;;;;;;;;;;5036374;28;20176;-76
2023/04/18 08:08:44;;;;;;;20.30;13.73;;;;;;;;;;5025395;28;20192;-76
2023/04/18 08:11:09;;;;;;;19.57;13.70;;;;;;;;;;5025600;28;20276;-77
2023/04/18 08:13:34;;;;;;;19.33;14.03;;;;;;;;;;5027786;28;20184;-76
2023/04/18 08:16:01;;;;;;;21.20;13.97;;;;;;;;;;5035279;28;20231;-76
2023/04/18 08:18:26;;;;;;;20.70;14.23;;;;;;;;;;5029501;28;20226;-76
2023/04/18 08:20:52;;;;;;;20.30;14.37;;;;;;;;;;5032566;28;20318;-76
2023/04/18 08:23:17;;;;;;;17.87;13.70;;;;;;;;;;5017212;28;20186;-76
2023/04/18 08:25:42;;;;;;;21.47;12.93;;;;;;;;;;5031722;28;20243;-76
2023/04/18 08:28:07;;;;;;;23.80;15.20;;;;;;;;;;5029952;28;20185;-76
2023/04/18 08:30:33;;;;;;;22.00;14.90;;;;;;;;;;5035651;28;20181;-76
2023/04/18 08:32:59;;;;;;;22.13;15.53;;;;;;;;;;5030185;28;20317;-76
2023/04/18 08:35:24;;;;;;;25.50;17.90;;;;;;;;;;5044238;28;20213;-76
2023/04/18 08:37:49;;;;;;;21.03;14.17;;;;;;;;;;5030444;28;20206;-76
2023/04/18 08:40:15;;;;;;;20.20;14.83;;;;;;;;;;5035110;28;20245;-76
2023/04/18 08:42:41;;;;;;;19.63;14.00;;;;;;;;;;5033745;28;20192;-76
2023/04/18 08:45:08;;;;;;;21.73;14.63;;;;;;;;;;5033522;28;20193;-76
2023/04/18 08:47:34;;;;;;;23.73;16.47;;;;;;;;;;5028221;28;20200;-76
2023/04/18 08:49:59;;;;;;;22.03;15.80;;;;;;;;;;5035600;28;20181;-76
2023/04/18 08:52:27;;;;;;;19.80;14.83;;;;;;;;;;5034801;28;20218;-76
2023/04/18 08:54:52;;;;;;;23.73;14.67;;;;;;;;;;5042785;28;20292;-76
2023/04/18 08:57:25;;;;;;;21.33;13.87;;;;;;;;;;5032059;28;20222;-77
2023/04/18 08:59:52;;;;;;;22.57;14.63;;;;;;;;;;5031313;28;20179;-77
2023/04/18 09:02:18;;;;;;;23.87;14.87;;;;;;;;;;5029307;28;20202;-76
2023/04/18 09:04:52;;;;;;;21.30;14.30;;;;;;;;;;5034557;28;20175;-77
2023/04/18 09:07:19;;;;;;;22.60;15.53;;;;;;;;;;5031751;28;20231;-76
2023/04/18 09:09:46;;;;;;;22.97;15.47;;;;;;;;;;5028866;28;20270;-77
2023/04/18 09:12:13;;;;;;;20.70;13.40;;;;;;;;;;5027961;28;20286;-77
2023/04/18 09:14:44;;;;;;;16.07;12.03;;;;;;;;;;5030080;28;20182;-76
2023/04/18 09:17:14;;;;;;;18.00;11.13;;;;;;;;;;5021063;28;20227;-76
2023/04/18 09:19:47;;;;;;;21.97;14.37;;;;;;;;;;5028559;28;20185;-76
2023/04/18 09:22:13;;;;;;;21.60;14.80;;;;;;;;;;5023000;28;20209;-76
2023/04/18 09:24:46;;;;;;;24.43;15.40;;;;;;;;;;5044149;28;20181;-77
2023/04/18 09:27:13;;;;;;;18.80;14.80;;;;;;;;;;5032409;28;20285;-76
2023/04/18 09:29:45;;;;;;;18.30;13.20;;;;;;;;;;5028702;28;20186;-76
2023/04/18 09:32:10;;;;;;;17.20;12.57;;;;;;;;;;5030777;28;20182;-76
2023/04/18 09:34:40;;;;;;;20.60;14.53;;;;;;;;;;5041787;28;20176;-76
2023/04/18 09:37:10;;;;;;;18.53;13.20;;;;;;;;;;5036519;28;20229;-76
2023/04/18 09:39:36;;;;;;;19.63;13.00;;;;;;;;;;5026679;28;20227;-77
2023/04/18 09:42:01;;;;;;;22.60;15.07;;;;;;;;;;5032514;28;20205;-76
2023/04/18 09:44:27;;;;;;;19.70;13.00;;;;;;;;;;5032720;28;20179;-76
2023/04/18 09:46:52;;;;;;;19.67;13.07;;;;;;;;;;5030024;28;20179;-77
2023/04/18 09:49:17;;;;;;;19.73;13.40;;;;;;;;;;5036968;28;20185;-77
2023/04/18 09:51:43;;;;;;;14.57;8.67;;;;;;;;;;5032373;28;20175;-76
2023/04/18 09:54:15;;;;;;;22.53;13.83;;;;;;;;;;5035336;28;20205;-76
2023/04/18 09:56:44;;;;;;;19.40;12.67;;;;;;;;;;5044789;28;20181;-77
2023/04/18 09:59:10;;;;;;;16.97;13.10;;;;;;;;;;5029485;28;20179;-76
2023/04/18 10:01:35;;;;;;;24.07;14.40;;;;;;;;;;5039620;28;20181;-76
2023/04/18 10:04:03;;;;;;;19.93;15.03;;;;;;;;;;5037816;28;20170;-77
2023/04/18 10:06:28;;;;;;;20.03;13.50;;;;;;;;;;5035195;28;20230;-77
2023/04/18 10:08:53;;;;;;;19.47;12.87;;;;;;;;;;5032292;28;20273;-77
2023/04/18 10:11:19;;;;;;;24.43;16.63;;;;;;;;;;5036866;28;20190;-77
2023/04/18 10:13:46;;;;;;;21.00;14.67;;;;;;;;;;5028625;28;20181;-77
2023/04/18 10:16:13;;;;;;;22.40;15.67;;;;;;;;;;5036628;28;20187;-77
2023/04/18 10:18:38;;;;;;;20.67;14.03;;;;;;;;;;5040774;28;20262;-76
2023/04/18 10:21:04;;;;;;;20.80;14.80;;;;;;;;;;5049615;28;20185;-77
2023/04/18 10:23:39;;;;;;;20.53;16.10;;;;;;;;;;5022038;28;20276;-77
2023/04/18 10:26:10;;;;;;;17.47;12.43;;;;;;;;;;5024368;28;20181;-77
2023/04/18 10:28:48;;;;;;;21.47;16.30;;;;;;;;;;5048738;28;20186;-77
2023/04/18 10:31:15;;;;;;;18.73;14.57;;;;;;;;;;5025328;28;20221;-77
2023/04/18 10:33:44;;;;;;;21.13;12.70;;;;;;;;;;5033137;28;20171;-77
2023/04/18 10:36:16;;;;;;;18.80;13.90;;;;;;;;;;5032853;28;20182;-77
2023/04/18 10:39:01;;;;;;;19.43;14.33;;;;;;;;;;5032088;28;20214;-77
2023/04/18 10:41:31;;;;;;;21.70;14.97;;;;;;;;;;5027005;28;20190;-77
2023/04/18 10:44:05;;;;;;;22.40;15.70;;;;;;;;;;5036650;28;20171;-77
2023/04/18 10:46:30;;;;;;;17.10;10.17;;;;;;;;;;5029196;28;20190;-76
2023/04/18 10:49:11;;;;;;;17.17;11.83;;;;;;;;;;5032985;28;20191;-77
2023/04/18 10:51:36;;;;;;;21.40;14.13;;;;;;;;;;5035476;28;20228;-77
2023/04/18 10:54:02;;;;;;;17.33;11.33;;;;;;;;;;5039736;28;20175;-77
2023/04/18 10:56:27;;;;;;;19.63;15.00;;;;;;;;;;5023783;28;20190;-77
2023/04/18 10:58:53;;;;;;;21.47;14.57;;;;;;;;;;5019734;28;20210;-77
2023/04/18 11:01:23;;;;;;;24.60;14.37;;;;;;;;;;5029984;28;20179;-77
2023/04/18 11:03:48;;;;;;;19.43;15.13;;;;;;;;;;5027026;28;20459;-77
2023/04/18 11:06:16;;;;;;;16.60;12.40;;;;;;;;;;5022013;28;20181;-77
2023/04/18 11:08:42;;;;;;;17.33;12.80;;;;;;;;;;5046845;28;20191;-77
2023/04/18 11:11:10;;;;;;;21.23;15.27;;;;;;;;;;5032456;28;20187;-77
2023/04/18 11:13:35;;;;;;;19.57;13.57;;;;;;;;;;5026912;28;20176;-77
2023/04/18 11:16:01;;;;;;;16.43;12.80;;;;;;;;;;5017207;28;20178;-77
2023/04/18 11:18:26;;;;;;;18.53;13.90;;;;;;;;;;5022968;28;20236;-77
2023/04/18 11:20:51;;;;;;;19.83;14.40;;;;;;;;;;5023387;28;20182;-77
2023/04/18 11:23:21;;;;;;;19.13;14.47;;;;;;;;;;5029446;28;20171;-77
2023/04/18 11:25:49;;;;;;;16.60;12.03;;;;;;;;;;5020306;28;20182;-77
2023/04/18 11:28:17;;;;;;;17.13;13.43;;;;;;;;;;5026979;28;20215;-77
2023/04/18 11:30:42;;;;;;;18.43;14.03;;;;;;;;;;5029986;28;20183;-77
2023/04/18 11:33:11;;;;;;;18.77;14.20;;;;;;;;;;5024168;28;20222;-77
2023/04/18 11:35:38;;;;;;;16.27;12.63;;;;;;;;;;5031500;28;20179;-77
2023/04/18 11:38:04;;;;;;;19.93;14.80;;;;;;;;;;5032544;28;20190;-78
2023/04/18 11:40:29;;;;;;;17.57;12.10;;;;;;;;;;5036919;28;20254;-76
2023/04/18 11:42:54;;;;;;;16.83;13.03;;;;;;;;;;5029783;28;20172;-77
2023/04/18 11:45:20;;;;;;;16.37;11.33;;;;;;;;;;5028087;28;20175;-77
2023/04/18 11:47:45;;;;;;;13.90;9.20;;;;;;;;;;5021954;28;20314;-77
2023/04/18 11:50:12;;;;;;;18.70;13.23;;;;;;;;;;5024980;28;20195;-77
2023/04/18 11:52:38;;;;;;;14.63;11.50;;;;;;;;;;5024951;28;20243;-77
2023/04/18 11:55:12;;;;;;;14.80;11.03;;;;;;;;;;5027750;28;20178;-77
2023/04/18 11:57:38;;;;;;;11.60;8.07;;;;;;;;;;5023455;28;20191;-77
2023/04/18 12:00:05;;;;;;;13.57;10.20;;;;;;;;;;5033205;28;20248;-77
2023/04/18 12:02:37;;;;;;;17.87;11.90;;;;;;;;;;5027172;28;20290;-77
2023/04/18 12:05:03;;;;;;;14.80;11.47;;;;;;;;;;5033699;28;20228;-77
2023/04/18 12:07:36;;;;;;;12.47;9.77;;;;;;;;;;5029021;28;20174;-77
2023/04/18 12:10:02;;;;;;;10.30;8.90;;;;;;;;;;5037051;28;20848;-77
2023/04/18 12:12:27;;;;;;;16.53;11.83;;;;;;;;;;5028347;28;20183;-77
2023/04/18 12:14:58;;;;;;;14.00;10.77;;;;;;;;;;5029937;28;20178;-77
2023/04/18 12:17:27;;;;;;;15.33;9.80;;;;;;;;;;5028847;28;20239;-77
2023/04/18 12:19:52;;;;;;;13.30;9.80;;;;;;;;;;5028786;28;20236;-77
2023/04/18 12:22:18;;;;;;;13.33;8.87;;;;;;;;;;5032391;28;20271;-77
2023/04/18 12:24:43;;;;;;;13.50;9.97;;;;;;;;;;5021855;28;20192;-77
2023/04/18 12:27:10;;;;;;;14.27;11.27;;;;;;;;;;5018672;28;20217;-77
2023/04/18 12:29:36;;;;;;;14.93;10.70;;;;;;;;;;5026416;28;20188;-77
2023/04/18 12:32:01;;;;;;;12.97;10.47;;;;;;;;;;5029818;28;20180;-77
2023/04/18 12:34:26;;;;;;;15.53;12.67;;;;;;;;;;5029678;28;20182;-77
2023/04/18 12:36:52;;;;;;;17.13;10.93;;;;;;;;;;5032505;28;20179;-77
2023/04/18 12:39:17;;;;;;;14.93;10.27;;;;;;;;;;5025227;28;20183;-77
2023/04/18 12:41:42;;;;;;;12.23;9.97;;;;;;;;;;5031676;28;20186;-77
2023/04/18 12:44:08;;;;;;;15.90;11.67;;;;;;;;;;5031870;28;20179;-77
2023/04/18 12:46:33;;;;;;;15.20;11.20;;;;;;;;;;5026538;28;20234;-77
2023/04/18 12:48:58;;;;;;;10.70;7.17;;;;;;;;;;5035533;28;20239;-76
2023/04/18 12:51:25;;;;;;;14.23;10.57;;;;;;;;;;5029343;28;20206;-77
2023/04/18 12:53:50;;;;;;;14.97;10.33;;;;;;;;;;5028530;28;20179;-77
2023/04/18 12:56:15;;;;;;;13.83;9.90;;;;;;;;;;5026534;28;20191;-77
2023/04/18 12:58:41;;;;;;;12.30;9.90;;;;;;;;;;5033527;28;20218;-77
2023/04/18 13:01:06;;;;;;;16.03;11.60;;;;;;;;;;5024933;28;20238;-78
2023/04/18 13:03:32;;;;;;;15.77;9.90;;;;;;;;;;5037584;28;20195;-77
2023/04/18 13:05:57;;;;;;;16.73;11.80;;;;;;;;;;5029543;28;20266;-77
2023/04/18 13:08:23;;;;;;;14.17;11.93;;;;;;;;;;5037768;28;20172;-77
2023/04/18 13:10:48;;;;;;;13.53;10.27;;;;;;;;;;5032545;28;20186;-77
2023/04/18 13:13:13;;;;;;;17.43;11.27;;;;;;;;;;5027338;28;20179;-77
2023/04/18 13:15:38;;;;;;;13.13;10.07;;;;;;;;;;5026075;28;20176;-78
2023/04/18 13:18:05;;;;;;;15.07;10.53;;;;;;;;;;5034891;28;20227;-77
2023/04/18 13:20:32;;;;;;;13.40;10.37;;;;;;;;;;5025236;28;20212;-78
2023/04/18 13:22:57;;;;;;;13.70;11.17;;;;;;;;;;5028090;28;20255;-78
2023/04/18 13:25:22;;;;;;;14.70;10.60;;;;;;;;;;5028531;28;20184;-78
2023/04/18 13:27:49;;;;;;;13.43;10.87;;;;;;;;;;5029773;28;20184;-78
2023/04/18 13:30:17;;;;;;;15.40;12.20;;;;;;;;;;5025860;28;20188;-78
2023/04/18 13:32:42;;;;;;;15.67;10.57;;;;;;;;;;5024723;28;20226;-77
2023/04/18 13:35:08;;;;;;;15.73;10.13;;;;;;;;;;5026202;28;20221;-78
2023/04/18 13:37:33;;;;;;;8.60;7.07;;;;;;;;;;5028897;28;20214;-78
2023/04/18 13:39:59;;;;;;;12.33;9.87;;;;;;;;;;5027650;28;20263;-77
2023/04/18 13:42:24;;;;;;;15.13;9.63;;;;;;;;;;5027398;28;20181;-78
2023/04/18 13:44:49;;;;;;;14.83;10.33;;;;;;;;;;5027844;28;20244;-78
2023/04/18 13:47:15;;;;;;;7.00;6.30;;;;;;;;;;5025942;28;20258;-78
2023/04/18 13:49:40;;;;;;;11.90;10.13;;;;;;;;;;5022306;28;20228;-78
2023/04/18 13:52:05;;;;;;;10.30;8.47;;;;;;;;;;5030229;28;20189;-78
2023/04/18 13:54:31;;;;;;;9.07;6.93;;;;;;;;;;5033465;28;20184;-78
2023/04/18 13:56:57;;;;;;;9.60;8.23;;;;;;;;;;5021294;28;20193;-77
2023/04/18 13:59:26;;;;;;;9.87;8.53;;;;;;;;;;5030525;28;20228;-77
2023/04/18 14:01:51;;;;;;;11.40;8.83;;;;;;;;;;5032749;28;20221;-77
2023/04/18 14:04:17;;;;;;;10.37;7.90;;;;;;;;;;5029416;28;20181;-78
2023/04/18 14:06:42;;;;;;;10.97;7.83;;;;;;;;;;5026947;28;20174;-78
2023/04/18 14:09:07;;;;;;;9.63;6.93;;;;;;;;;;5026133;28;20249;-78
2023/04/18 14:11:33;;;;;;;8.13;6.97;;;;;;;;;;5035247;28;20177;-77